Time;durP1;ratioP1;P1;durP2;ratioP2;P2;SDS_P1;SDS_P2;PMS_P1;PMS_P2;Temp;Humidity;BMP_temperature;BMP_pressure;BME280_temperature;BME280_humidity;BME280_pressure;Samples;Min_cycle;Max_cycle;Signal;HPM_P1;HPM_P2
2021/07/01 00:00:13;;;;;;;0.40;0.20;;;14.90;99.90;;;;;;4994510;28;20125;-82
2021/07/01 00:02:39;;;;;;;1.08;0.40;;;14.60;99.90;;;;;;4977044;28;20022;-82
2021/07/01 00:05:06;;;;;;;0.73;0.47;;;14.80;99.90;;;;;;4994559;28;20037;-82
2021/07/01 00:07:32;;;;;;;0.68;0.30;;;15.00;99.90;;;;;;4977140;28;20022;-82
2021/07/01 00:09:58;;;;;;;0.60;0.30;;;14.90;99.90;;;;;;4994501;28;20436;-82
2021/07/01 00:12:24;;;;;;;0.95;0.20;;;14.70;99.90;;;;;;4977075;28;20080;-82
2021/07/01 00:14:50;;;;;;;2.20;0.20;;;14.80;99.90;;;;;;4977001;28;20026;-82
2021/07/01 00:17:15;;;;;;;0.50;0.30;;;14.90;99.90;;;;;;4976818;28;20084;-82
2021/07/01 00:19:41;;;;;;;0.77;0.30;;;15.10;99.90;;;;;;4976906;28;20049;-82
2021/07/01 00:22:07;;;;;;;0.20;0.10;;;15.00;99.90;;;;;;4976839;28;20034;-82
2021/07/01 00:24:33;;;;;;;1.80;0.30;;;15.00;99.90;;;;;;4976845;28;20037;-82
2021/07/01 00:26:58;;;;;;;0.98;0.28;;;14.90;99.90;;;;;;4976728;28;20355;-82
2021/07/01 00:29:25;;;;;;;1.27;0.32;;;;;;;;;;4994218;28;20145;-82
2021/07/01 00:31:53;;;;;;;0.50;0.20;;;;;;;;;;4976715;28;20018;-83
2021/07/01 00:34:21;;;;;;;0.40;0.30;;;;;;;;;;4994044;28;20033;-83
2021/07/01 00:36:51;;;;;;;0.30;0.20;;;;;;;;;;4976649;28;20034;-82
2021/07/01 00:39:17;;;;;;;0.65;0.28;;;;;;;;;;4976683;28;20394;-83
2021/07/01 00:41:43;;;;;;;0.60;0.30;;;;;;;;;;4976659;28;20511;-82
2021/07/01 00:44:09;;;;;;;1.23;0.30;;;;;;;;;;4976514;28;20442;-82
2021/07/01 00:46:35;;;;;;;2.40;0.30;;;;;;;;;;4976598;28;20478;-83
2021/07/01 00:49:01;;;;;;;0.40;0.22;;;;;;;;;;4976490;28;20458;-82
2021/07/01 00:51:27;;;;;;;1.33;0.38;;;;;;;;;;4993895;28;20032;-82
2021/07/01 00:53:53;;;;;;;0.17;0.10;;;;;;;;;;4976524;28;20041;-82
2021/07/01 00:56:20;;;;;;;1.50;0.30;;;;;;;;;;4976159;28;20030;-82
2021/07/01 00:58:46;;;;;;;2.25;0.20;;;;;;;;;;4993937;28;20022;-82
2021/07/01 01:01:12;;;;;;;2.80;0.30;;;;;;;;;;4976218;28;20504;-82
2021/07/01 01:03:39;;;;;;;0.30;0.20;;;;;;;;;;4976401;28;20031;-82
2021/07/01 01:06:06;;;;;;;0.22;0.10;;;;;;;;;;4976701;28;20023;-82
2021/07/01 01:08:32;;;;;;;0.85;0.20;;;;;;;;;;4976361;28;20081;-82
2021/07/01 01:10:58;;;;;;;0.20;0.10;;;;;;;;;;4976407;28;20096;-82
2021/07/01 01:13:25;;;;;;;0.10;0.10;;;;;;;;;;4976352;28;20023;-83
2021/07/01 01:15:51;;;;;;;1.20;0.40;;;;;;;;;;4976321;28;20047;-83
2021/07/01 01:18:17;;;;;;;2.15;0.40;;;;;;;;;;4993750;28;20539;-83
2021/07/01 01:20:44;;;;;;;1.15;0.28;;;;;;;;;;4976275;28;20113;-83
2021/07/01 01:23:10;;;;;;;0.10;0.10;;;;;;;;;;4976258;28;20030;-82
2021/07/01 01:25:36;;;;;;;2.30;0.20;;;;;;;;;;4976176;28;20030;-83
2021/07/01 01:28:02;;;;;;;0.35;0.05;;;;;;;;;;4993937;28;20077;-83
2021/07/01 01:30:28;;;;;;;0.57;0.20;;;;;;;;;;4993638;28;20026;-82
2021/07/01 01:32:54;;;;;;;0.17;0.17;;;;;;;;;;4976758;28;20470;-83
2021/07/01 01:35:20;;;;;;;1.52;0.30;;;;;;;;;;4976188;28;20061;-82
2021/07/01 01:37:46;;;;;;;0.30;0.30;;;;;;;;;;4993516;28;20030;-83
2021/07/01 01:40:12;;;;;;;3.53;0.20;;;;;;;;;;4976152;28;20398;-82
2021/07/01 01:42:41;;;;;;;3.20;0.20;;;;;;;;;;4976389;28;20117;-82
2021/07/01 01:45:07;;;;;;;0.35;0.20;;;;;;;;;;4976125;28;20026;-82
2021/07/01 01:47:33;;;;;;;1.25;0.30;;;;;;;;;;4975953;28;20030;-82
2021/07/01 01:49:59;;;;;;;0.13;0.10;;;;;;;;;;4976073;28;20022;-83
2021/07/01 01:52:25;;;;;;;1.85;0.20;;;;;;;;;;4976063;28;20057;-83
2021/07/01 01:54:51;;;;;;;1.00;0.30;;;;;;;;;;4975977;28;20026;-82
2021/07/01 01:57:17;;;;;;;0.75;0.20;;;;;;;;;;4975989;28;20053;-83
2021/07/01 01:59:43;;;;;;;1.75;0.28;;;;;;;;;;4993102;28;20037;-83
2021/07/01 02:02:09;;;;;;;0.80;0.20;;;;;;;;;;4993624;28;20486;-83
2021/07/01 02:04:35;;;;;;;0.73;0.20;;;;;;;;;;4975845;28;20057;-83
2021/07/01 02:07:01;;;;;;;3.55;0.28;;;;;;;;;;4975862;28;20026;-83
2021/07/01 02:09:27;;;;;;;0.20;0.20;;;;;;;;;;4978890;28;20452;-83
2021/07/01 02:11:53;;;;;;;0.30;0.10;;;;;;;;;;4979319;28;20033;-83
2021/07/01 02:14:20;;;;;;;2.20;0.20;;;;;;;;;;4979228;28;20085;-83
2021/07/01 02:16:46;;;;;;;2.08;0.30;;;;;;;;;;4979225;28;20516;-83
2021/07/01 02:19:12;;;;;;;1.20;0.30;;;;;;;;;;4979191;28;20030;-83
2021/07/01 02:21:38;;;;;;;2.80;0.50;;;;;;;;;;4996598;28;20092;-83
2021/07/01 02:24:04;;;;;;;2.92;0.25;;;;;;;;;;4979525;28;20040;-84
2021/07/01 02:26:30;;;;;;;0.35;0.20;;;;;;;;;;4996942;28;20496;-83
2021/07/01 02:28:56;;;;;;;1.13;0.30;;;;;;;;;;4979297;28;20496;-83
2021/07/01 02:31:22;;;;;;;1.42;0.50;;;;;;;;;;4996656;28;20474;-83
2021/07/01 02:33:48;;;;;;;1.00;0.17;;;;;;;;;;4979230;28;20027;-83
2021/07/01 02:36:14;;;;;;;1.08;0.20;;;;;;;;;;4996581;28;20034;-83
2021/07/01 02:38:40;;;;;;;0.57;0.10;;;;;;;;;;4979068;28;20030;-83
2021/07/01 02:41:06;;;;;;;0.88;0.20;;;;;;;;;;4979043;28;20026;-83
2021/07/01 02:43:32;;;;;;;1.45;0.30;;;;;;;;;;4996537;28;20030;-82
2021/07/01 02:45:58;;;;;;;2.10;0.10;;;;;;;;;;4979038;28;20202;-83
2021/07/01 02:48:24;;;;;;;3.15;0.20;;;;;;;;;;4996470;28;20138;-83
2021/07/01 02:50:51;;;;;;;1.23;0.20;;;;;;;;;;4978905;28;20457;-83
2021/07/01 02:53:17;;;;;;;1.85;0.20;;;;;;;;;;4978728;28;20030;-84
2021/07/01 02:55:43;;;;;;;1.80;0.22;;;;;;;;;;4978716;28;20026;-83
2021/07/01 02:58:09;;;;;;;0.40;0.10;;;;;;;;;;4979059;28;20033;-83
2021/07/01 03:00:35;;;;;;;0.43;0.20;;;;;;;;;;4978475;28;20042;-82
2021/07/01 03:03:01;;;;;;;0.57;0.28;;;;;;;;;;4978675;28;20022;-84
2021/07/01 03:05:27;;;;;;;0.90;0.20;;;;;;;;;;4996643;28;20027;-83
2021/07/01 03:07:53;;;;;;;1.08;0.30;;;;;;;;;;4978497;28;20109;-83
2021/07/01 03:10:19;;;;;;;0.77;0.28;;;;;;;;;;4978519;28;20019;-83
2021/07/01 03:12:45;;;;;;;2.85;0.30;;;;;;;;;;4978451;28;20031;-83
2021/07/01 03:15:11;;;;;;;0.30;0.30;;;;;;;;;;4978451;28;20116;-83
2021/07/01 03:17:40;;;;;;;0.35;0.30;;;;;;;;;;4978380;28;20029;-83
2021/07/01 03:20:07;;;;;;;2.70;0.20;;;;;;;;;;4995541;28;20379;-83
2021/07/01 03:22:33;;;;;;;5.60;0.40;;;;;;;;;;4978430;28;20081;-83
2021/07/01 03:24:59;;;;;;;0.43;0.30;;;;;;;;;;4995607;28;20089;-83
2021/07/01 03:27:25;;;;;;;2.92;0.30;;;;;;;;;;4978379;28;20045;-83
2021/07/01 03:29:51;;;;;;;0.57;0.30;;;;;;;;;;4978486;28;20122;-82
2021/07/01 03:32:17;;;;;;;0.35;0.20;;;;;;;;;;4978137;28;20149;-83
2021/07/01 03:34:43;;;;;;;1.75;0.20;;;;;;;;;;4978182;28;20033;-82
2021/07/01 03:37:09;;;;;;;0.80;0.17;;;;;;;;;;4977921;28;20031;-83
2021/07/01 03:39:36;;;;;;;1.10;0.40;;;;;;;;;;4978056;28;20049;-83
2021/07/01 03:42:02;;;;;;;0.70;0.40;;;;;;;;;;4978131;28;20022;-83
2021/07/01 03:44:28;;;;;;;1.35;0.30;;;;;;;;;;4995511;28;20034;-83
2021/07/01 03:46:54;;;;;;;2.53;0.30;;;;;;;;;;4995208;28;20061;-83
2021/07/01 03:49:20;;;;;;;1.55;0.30;;;;;;;;;;4995347;28;20026;-83
2021/07/01 03:51:46;;;;;;;1.10;0.30;;;;;;;;;;4977752;28;20034;-83
2021/07/01 03:54:12;;;;;;;6.28;0.63;;;;;;;;;;4995204;28;20101;-83
2021/07/01 03:56:41;;;;;;;3.00;0.30;;;;;;;;;;4977652;28;20039;-83
2021/07/01 03:59:11;;;;;;;2.15;0.30;;;;;;;;;;4977855;28;20030;-83
2021/07/01 04:01:37;;;;;;;2.03;0.30;;;;;;;;;;4977452;28;20046;-84
2021/07/01 04:04:04;;;;;;;0.68;0.30;;;;;;;;;;4977752;28;20396;-84
2021/07/01 04:06:30;;;;;;;0.30;0.30;;;;;;;;;;4977578;28;20022;-83
2021/07/01 04:08:56;;;;;;;2.40;0.50;;;;;;;;;;4977607;28;20026;-83
2021/07/01 04:11:22;;;;;;;2.10;0.20;;;;;;;;;;4977809;28;20062;-83
2021/07/01 04:13:48;;;;;;;0.73;0.40;;;;;;;;;;4995085;28;20037;-84
2021/07/01 04:16:14;;;;;;;1.90;0.30;;;;;;;;;;4995019;28;20022;-83
2021/07/01 04:18:40;;;;;;;1.50;0.30;;;;;;;;;;4977393;28;20030;-84
2021/07/01 04:21:06;;;;;;;0.73;0.30;;;;;;;;;;4977399;28;20030;-83
2021/07/01 04:23:33;;;;;;;3.03;0.22;;;;;;;;;;4994552;28;20027;-83
2021/07/01 04:26:00;;;;;;;0.20;0.20;;;;;;;;;;4977333;28;20572;-82
2021/07/01 04:28:26;;;;;;;0.30;0.20;;;;;;;;;;4977015;28;20034;-84
2021/07/01 04:30:52;;;;;;;4.22;0.40;;;;;;;;;;4976608;28;20026;-83
2021/07/01 04:33:18;;;;;;;1.15;0.30;;;;;;;;;;4977223;28;20030;-83
2021/07/01 04:35:48;;;;;;;1.17;0.25;;;;;;;;;;4977315;28;20065;-83
2021/07/01 04:38:18;;;;;;;1.17;0.30;;;;;;;;;;4994754;28;20018;-83
2021/07/01 04:40:44;;;;;;;1.92;0.32;;;;;;;;;;4977015;28;20030;-83
2021/07/01 04:43:10;;;;;;;3.47;0.30;;;;;;;;;;4977481;28;20469;-83
2021/07/01 04:45:37;;;;;;;2.28;0.30;;;;;;;;;;4977939;28;20026;-83
2021/07/01 04:48:04;;;;;;;1.15;0.50;;;;;;;;;;4977147;28;20027;-83
2021/07/01 04:50:30;;;;;;;1.27;0.20;;;;;;;;;;4977133;28;20022;-83
2021/07/01 04:52:56;;;;;;;0.80;0.20;;;;;;;;;;4976974;28;20031;-84
2021/07/01 04:55:22;;;;;;;1.92;0.28;;;;;;;;;;4976909;28;20030;-83
2021/07/01 04:57:48;;;;;;;1.90;0.30;;;;;;;;;;4976751;28;20038;-83
2021/07/01 05:00:14;;;;;;;4.03;0.35;;;;;;;;;;4976536;28;20045;-83
2021/07/01 05:02:40;;;;;;;0.20;0.20;;;;;;;;;;4976658;28;20398;-83
2021/07/01 05:05:07;;;;;;;0.73;0.30;;;;;;;;;;4994082;28;20537;-83
2021/07/01 05:07:33;;;;;;;0.75;0.20;;;;;;;;;;4976756;28;20022;-83
2021/07/01 05:09:59;;;;;;;1.02;0.20;;;;;;;;;;4994123;28;20019;-83
2021/07/01 05:12:25;;;;;;;1.35;0.30;;;;;;;;;;4976839;28;20037;-83
2021/07/01 05:14:51;;;;;;;1.67;0.30;;;;;;;;;;4976825;28;20037;-84
2021/07/01 05:17:17;;;;;;;11.10;0.50;;;;;;;;;;4976761;28;20093;-83
2021/07/01 05:19:43;;;;;;;0.60;0.30;;;;;;;;;;4994034;28;20034;-83
2021/07/01 05:22:09;;;;;;;2.15;0.30;;;;;;;;;;4976677;28;20392;-83
2021/07/01 05:24:35;;;;;;;0.85;0.38;;;;;;;;;;4976730;28;20106;-83
2021/07/01 05:27:01;;;;;;;0.30;0.30;;;;;;;;;;4976611;28;20398;-84
2021/07/01 05:29:27;;;;;;;2.85;0.25;;;;;;;;;;4976599;28;20073;-84
2021/07/01 05:31:54;;;;;;;1.58;0.40;;;;;;;;;;4993974;28;20026;-83
2021/07/01 05:34:20;;;;;;;1.58;0.20;;;;;;;;;;4976618;28;20505;-83
2021/07/01 05:36:46;;;;;;;0.88;0.30;;;;;;;;;;4976678;28;20085;-84
2021/07/01 05:39:12;;;;;;;1.30;0.35;;;;;;;;;;4976670;28;20027;-84
2021/07/01 05:41:38;;;;;;;0.95;0.40;;;;;;;;;;4976935;28;20557;-83
2021/07/01 05:44:04;;;;;;;2.38;0.40;;;;;;;;;;4980232;28;20031;-83
2021/07/01 05:46:31;;;;;;;1.63;0.43;;;;;;;;;;4980078;28;20045;-83
2021/07/01 05:48:57;;;;;;;0.75;0.30;;;;;;;;;;4980197;28;20446;-84
2021/07/01 05:51:24;;;;;;;0.68;0.45;;;;;;;;;;4980186;28;20018;-83
2021/07/01 05:56:22;;;;;;;1.15;0.63;;;;;;;;;;4997943;28;20026;-84
2021/07/01 05:58:48;;;;;;;1.40;0.50;;;;;;;;;;4980070;28;20073;-83
2021/07/01 06:01:14;;;;;;;1.10;0.60;;;;;;;;;;4979774;28;20048;-84
2021/07/01 06:03:40;;;;;;;3.08;0.80;;;;;;;;;;4997308;28;20054;-83
2021/07/01 06:06:11;;;;;;;1.20;0.70;;;;;;;;;;4997326;28;20445;-84
2021/07/01 06:08:37;;;;;;;1.52;0.80;;;;;;;;;;4997143;28;20026;-84
2021/07/01 06:11:07;;;;;;;1.30;0.80;;;;;;;;;;4979685;28;20050;-83
2021/07/01 06:13:38;;;;;;;2.38;1.23;;;;;;;;;;4979698;28;20046;-83
2021/07/01 06:16:04;;;;;;;0.85;0.65;;;;;;;;;;4979472;28;20121;-83
2021/07/01 06:18:31;;;;;;;0.40;0.30;;;;;;;;;;4996962;28;20428;-83
2021/07/01 06:20:58;;;;;;;1.52;0.55;;;;;;;;;;4979501;28;20113;-83
2021/07/01 06:23:24;;;;;;;3.83;1.10;;;;;;;;;;4980012;28;20605;-83
2021/07/01 06:25:50;;;;;;;3.20;0.68;;;;;;;;;;4979859;28;20093;-84
2021/07/01 06:28:16;;;;;;;3.65;0.88;;;;;;;;;;4980251;28;20466;-83
2021/07/01 06:30:45;;;;;;;2.88;0.70;;;;;;;;;;4979383;28;20112;-84
2021/07/01 06:33:11;;;;;;;1.33;0.50;;;;;;;;;;4979325;28;20022;-83
2021/07/01 06:35:38;;;;;;;7.20;0.80;;;;;;;;;;4979294;28;20077;-84
2021/07/01 06:38:08;;;;;;;5.90;0.90;;;;;;;;;;4996673;28;20027;-84
2021/07/01 06:40:35;;;;;;;1.52;0.82;;;;;;;;;;4979269;28;20077;-83
2021/07/01 06:43:02;;;;;;;1.52;0.70;;;;;;;;;;4979148;28;20143;-83
2021/07/01 06:45:28;;;;;;;1.63;0.80;;;;;;;;;;4979017;28;20122;-83
2021/07/01 06:47:55;;;;;;;0.82;0.65;;;;;;;;;;4979260;28;20052;-83
2021/07/01 06:50:22;;;;;;;2.60;0.95;;;;;;;;;;4979067;28;20076;-82
2021/07/01 06:52:49;;;;;;;2.80;0.90;;;;;;;;;;4978888;28;20037;-83
2021/07/01 06:55:15;;;;;;;1.80;0.85;;;;;;;;;;4978364;28;20022;-83
2021/07/01 06:57:43;;;;;;;2.47;1.15;;;;;;;;;;4979045;28;20030;-83
2021/07/01 07:00:10;;;;;;;2.03;0.80;;;;;;;;;;4978459;28;20506;-83
2021/07/01 07:02:37;;;;;;;2.30;1.00;;;;;;;;;;4996511;28;20474;-83
2021/07/01 07:05:07;;;;;;;4.55;0.70;;;;;;;;;;4978751;28;20030;-83
2021/07/01 07:07:33;;;;;;;3.05;0.93;;;;;;;;;;4978501;28;20442;-83
2021/07/01 07:10:03;;;;;;;2.92;1.05;;;;;;;;;;4978509;28;20027;-83
2021/07/01 07:12:30;;;;;;;1.38;1.20;;;;;;;;;;4978473;28;20022;-83
2021/07/01 07:14:56;;;;;;;2.20;1.00;;;;;;;;;;4996312;28;20033;-83
2021/07/01 07:17:24;;;;;;;1.17;0.98;;;;;;;;;;4978366;28;20556;-83
2021/07/01 07:19:50;;;;;;;3.17;1.08;;;;;;;;;;4978506;28;20117;-83
2021/07/01 07:22:18;;;;;;;1.83;1.05;;;;;;;;;;4978338;28;20034;-83
2021/07/01 07:24:50;;;;;;;1.98;1.30;;;;;;;;;;4978569;28;20026;-83
2021/07/01 07:27:17;;;;;;;1.70;1.40;;;;;;;;;;4978586;28;20022;-83
2021/07/01 07:29:43;;;;;;;2.70;1.50;;;;;;;;;;4978172;28;20026;-83
2021/07/01 07:32:13;;;;;;;1.85;0.90;;;;;;;;;;4978350;28;20557;-83
2021/07/01 07:34:39;;;;;;;2.10;1.30;;;;;;;;;;4978399;28;20037;-83
2021/07/01 07:37:05;;;;;;;1.52;1.23;;;;;;;;;;4978373;28;20065;-83
2021/07/01 07:39:32;;;;;;;1.63;1.20;;;;;;;;;;4977979;28;20030;-83
2021/07/01 07:41:58;;;;;;;3.17;1.13;;;;;;;;;;4978186;28;20030;-84
2021/07/01 07:44:25;;;;;;;1.67;1.02;;;;;;;;;;4977945;28;20105;-84
2021/07/01 07:46:51;;;;;;;2.92;1.15;;;;;;;;;;4978040;28;20022;-83
2021/07/01 07:49:19;;;;;;;1.95;1.35;;;;;;;;;;4995440;28;20033;-84
2021/07/01 07:51:48;;;;;;;3.42;1.10;;;;;;;;;;4977916;28;20516;-83
2021/07/01 07:54:16;;;;;;;1.60;1.40;;;;;;;;;;4978366;28;20381;-84
2021/07/01 07:56:42;;;;;;;2.20;1.58;;;;;;;;;;4977731;28;20097;-83
2021/07/01 07:59:12;;;;;;;1.70;1.23;;;;;;;;;;4977713;28;20034;-83
2021/07/01 08:01:42;;;;;;;2.53;1.60;;;;;;;;;;4977476;28;20052;-83
2021/07/01 08:04:12;;;;;;;1.90;1.48;;;;;;;;;;4977727;28;20470;-83
2021/07/01 08:06:42;;;;;;;1.40;1.20;;;;;;;;;;4976760;28;20026;-83
2021/07/01 08:09:08;;;;;;;1.95;1.40;;;;;;;;;;4977430;28;20117;-83
2021/07/01 08:11:36;;;;;;;3.17;1.45;;;;;;;;;;4977499;28;20037;-83
2021/07/01 08:14:02;;;;;;;3.17;1.30;;;;;;;;;;4994911;28;20441;-83
2021/07/01 08:16:28;;;;;;;1.73;1.42;;;;;;;;;;4977551;28;20117;-83
2021/07/01 08:18:59;;;;;;;1.40;1.30;;;;;;;;;;4977358;28;20466;-83
2021/07/01 08:21:25;;;;;;;2.50;1.60;;;;;;;;;;4994903;28;20022;-83
2021/07/01 08:23:51;;;;;;;2.33;1.45;;;;;;;;;;4977144;28;20026;-84
2021/07/01 08:26:17;;;;;;;2.28;1.60;;;;;;;;;;4976907;28;20033;-84
2021/07/01 08:28:44;;;;;;;2.30;1.60;;;;;;;;;;4976873;28;20046;-85
2021/07/01 08:31:14;;;;;;;3.00;1.90;;;;;;;;;;4994247;28;20022;-84
2021/07/01 08:33:41;;;;;;;3.65;2.42;;;;;;;;;;4994498;28;20360;-83
2021/07/01 08:36:09;;;;;;;6.20;5.25;;;;;;;;;;4976870;28;20022;-84
2021/07/01 08:38:36;;;;;;;4.10;2.17;;;;;;;;;;4994576;28;20367;-84
2021/07/01 08:41:10;;;;;;;3.20;2.00;;;;;;;;;;4976840;28;20085;-84
2021/07/01 08:43:41;;;;;;;2.72;2.10;;;;;;;;;;4977583;28;20081;-84
2021/07/01 08:46:07;;;;;;;6.95;3.05;;;;;;;;;;4977050;28;20541;-84
2021/07/01 08:48:42;;;;;;;4.95;1.85;;;;;;;;;;4976878;28;20042;-84
2021/07/01 08:51:10;;;;;;;2.67;1.80;;;;;;;;;;4994327;28;20026;-84
2021/07/01 08:53:39;;;;;;;1.60;1.50;;;;;;;;;;4994004;28;20042;-84
2021/07/01 08:56:11;;;;;;;3.13;1.92;;;;;;;;;;4976564;28;20413;-84
2021/07/01 08:58:44;;;;;;;1.88;1.67;;;;;;;;;;4976491;28;20022;-84
2021/07/01 09:01:11;;;;;;;3.65;1.70;;;;;;;;;;4976239;28;20121;-84
2021/07/01 09:03:40;;;;;;;2.72;1.88;;;;;;;;;;4976434;28;20068;-85
2021/07/01 09:06:08;;;;;;;2.25;1.80;;;;;;;;;;4976363;28;20410;-85
2021/07/01 09:08:40;;;;;;;2.35;1.70;;;;;;;;;;4976415;28;20022;-84
2021/07/01 09:11:11;;;;;;;1.73;1.50;;;;;;;;;;4976419;28;20479;-85
2021/07/01 09:13:37;;;;;;;3.40;1.80;;;;;;;;;;4976421;28;20062;-84
2021/07/01 09:16:05;;;;;;;2.10;1.70;;;;;;;;;;4976350;28;20125;-84
2021/07/01 09:18:31;;;;;;;2.65;1.65;;;;;;;;;;4979885;28;20117;-84
2021/07/01 09:20:57;;;;;;;2.10;1.42;;;;;;;;;;4980514;28;20046;-85
2021/07/01 09:23:29;;;;;;;4.28;1.80;;;;;;;;;;4980218;28;20027;-85
2021/07/01 09:25:56;;;;;;;2.03;1.40;;;;;;;;;;4980099;28;20027;-85
2021/07/01 09:28:22;;;;;;;1.38;1.27;;;;;;;;;;4980118;28;20026;-84
2021/07/01 09:30:48;;;;;;;1.40;1.30;;;;;;;;;;4980049;28;20045;-85
2021/07/01 09:33:14;;;;;;;1.80;1.45;;;;;;;;;;4980097;28;20474;-84
2021/07/01 09:35:40;;;;;;;1.58;1.42;;;;;;;;;;4979945;28;20064;-84
2021/07/01 09:38:08;;;;;;;3.38;1.55;;;;;;;;;;4980004;28;20370;-84
2021/07/01 09:40:35;;;;;;;1.98;1.30;;;;;;;;;;4979915;28;20049;-84
2021/07/01 09:43:04;;;;;;;5.63;1.67;;;;;;;;;;4997602;28;20057;-84
2021/07/01 09:45:32;;;;;;;1.40;1.30;;;;;;;;;;4979723;28;20433;-84
2021/07/01 09:48:08;;;;;;;2.97;1.50;;;;;;;;;;4979726;28;20019;-84
2021/07/01 09:50:38;;;;;;;2.28;1.30;;;;;;;;;;4997486;28;20072;-84
2021/07/01 09:53:04;;;;;;;2.58;1.35;;;;;;;;;;4979670;28;20124;-85
2021/07/01 09:55:32;;;;;;;1.90;1.50;;;;;;;;;;4979506;28;20037;-84
2021/07/01 09:58:10;;;;;;;1.63;1.30;;;;;;;;;;4979599;28;20105;-84
2021/07/01 10:00:36;;;;;;;1.98;1.35;;;;;;;;;;4979294;28;20120;-84
2021/07/01 10:03:10;;;;;;;3.70;1.40;;;;;;;;;;4979396;28;20026;-84
2021/07/01 10:05:37;;;;;;;1.63;1.23;;;;;;;;;;4979355;28;20545;-84
2021/07/01 10:08:03;;;;;;;1.50;1.02;;;;;;;;;;4996832;28;20362;-84
2021/07/01 10:10:29;;;;;;;1.80;1.40;;;;;;;;;;4996785;28;20019;-84
2021/07/01 10:12:59;;;;;;;1.65;1.30;;;;;;;;;;4996768;28;20018;-85
2021/07/01 10:15:28;;;;;;;1.85;1.33;;;;;;;;;;4979274;28;20027;-84
2021/07/01 10:18:03;;;;;;;3.08;1.13;;;;;;;;;;4996678;28;20026;-84
2021/07/01 10:20:35;;;;;;;1.88;1.10;;;;;;;;;;4979174;28;20081;-84
2021/07/01 10:23:02;;;;;;;1.85;1.10;;;;;;;;;;4979132;28;20023;-84
2021/07/01 10:25:30;;;;;;;1.85;1.08;;;;;;;;;;4979066;28;20054;-84
2021/07/01 10:27:58;;;;;;;1.98;1.38;;;;;;;;;;4978597;28;20023;-84
2021/07/01 10:30:24;;;;;;;1.88;1.00;;;;;;;;;;4978454;28;20018;-83
2021/07/01 10:32:54;;;;;;;1.10;1.00;;;;;;;;;;4979065;28;20023;-83
2021/07/01 10:35:28;;;;;;;1.45;0.82;;;;;;;;;;4996288;28;20034;-84
2021/07/01 10:38:04;;;;;;;1.20;1.10;;;;;;;;;;4978998;28;20076;-83
2021/07/01 10:40:31;;;;;;;1.20;0.88;;;;;;;;;;4978861;28;20494;-84
2021/07/01 10:42:57;;;;;;;1.10;1.00;;;;;;;;;;4978759;28;20157;-84
2021/07/01 10:45:25;;;;;;;1.50;1.05;;;;;;;;;;4978666;28;20026;-84
2021/07/01 10:47:51;;;;;;;4.78;1.58;;;;;;;;;;4978717;28;20478;-84
2021/07/01 10:50:17;;;;;;;1.10;1.00;;;;;;;;;;4978590;28;20080;-84
2021/07/01 10:52:44;;;;;;;1.33;0.80;;;;;;;;;;4979409;28;20113;-84
2021/07/01 10:55:11;;;;;;;1.88;1.13;;;;;;;;;;4980259;28;20026;-85
2021/07/01 10:57:46;;;;;;;1.00;0.70;;;;;;;;;;4978853;28;20494;-84
2021/07/01 11:00:12;;;;;;;0.90;0.80;;;;;;;;;;4978396;28;20046;-84
2021/07/01 11:02:45;;;;;;;1.13;0.80;;;;;;;;;;4978524;28;20039;-83
2021/07/01 11:05:12;;;;;;;0.70;0.70;;;;;;;;;;4978468;28;20552;-83
2021/07/01 11:07:45;;;;;;;5.88;0.82;;;;;;;;;;4978330;28;20262;-84
2021/07/01 11:10:12;;;;;;;3.55;1.00;;;;;;;;;;4978360;28;20473;-84
2021/07/01 11:12:42;;;;;;;1.15;1.05;;;;;;;;;;4978276;28;20030;-84
2021/07/01 11:15:09;;;;;;;2.72;1.15;;;;;;;;;;4978230;28;20133;-84
2021/07/01 11:17:36;;;;;;;1.90;1.30;;;;;;;;;;4978170;28;20058;-84
2021/07/01 11:20:14;;;;;;;1.42;1.23;;;;;;;;;;4995616;28;20544;-84
2021/07/01 11:22:44;;;;;;;1.65;1.20;;;;;;;;;;4995467;28;20023;-85
2021/07/01 11:25:25;;;;;;;1.50;0.93;;;;;;;;;;4995420;28;20050;-85
2021/07/01 11:27:52;;;;;;;1.23;1.13;;;;;;;;;;4977945;28;20022;-85
2021/07/01 11:30:25;;;;;;;1.95;1.10;;;;;;;;;;4977875;28;20034;-85
2021/07/01 11:33:14;;;;;;;1.20;1.00;;;;;;;;;;4978219;28;20085;-85
2021/07/01 11:35:40;;;;;;;1.40;1.00;;;;;;;;;;4995364;28;20026;-85
2021/07/01 11:38:23;;;;;;;1.55;1.10;;;;;;;;;;4977895;28;20069;-85
2021/07/01 11:40:49;;;;;;;1.23;1.10;;;;;;;;;;4977519;28;20027;-86
2021/07/01 11:43:15;;;;;;;1.70;1.20;;;;;;;;;;4977673;28;20504;-85
2021/07/01 11:45:42;;;;;;;2.35;1.10;;;;;;;;;;4977547;28;20026;-85
2021/07/01 11:48:11;;;;;;;2.42;1.08;;;;;;;;;;4978004;28;20046;-85
2021/07/01 11:50:37;;;;;;;1.50;1.10;;;;;;;;;;4977577;28;20029;-85
2021/07/01 11:53:04;;;;;;;1.60;1.33;;;;;;;;;;4977595;28;20121;-86
2021/07/01 11:55:30;;;;;;;2.55;1.45;;;;;;;;;;4978041;28;20076;-85
2021/07/01 11:57:56;;;;;;;1.80;1.30;;;;;;;;;;4977431;28;20031;-85
2021/07/01 12:00:24;;;;;;;1.63;1.20;;;;;;;;;;4977319;28;20556;-86
2021/07/01 12:02:51;;;;;;;5.20;1.45;;;;;;;;;;4977304;28;20044;-86
2021/07/01 12:05:17;;;;;;;2.90;1.20;;;;;;;;;;4978332;28;20561;-88
2021/07/01 12:07:46;;;;;;;1.83;1.38;;;;;;;;;;4980662;28;20053;-86
2021/07/01 12:10:17;;;;;;;1.83;1.48;;;;;;;;;;4977182;28;20018;-85
2021/07/01 12:12:43;;;;;;;1.63;1.27;;;;;;;;;;4977244;28;20026;-85
2021/07/01 12:15:10;;;;;;;1.67;1.20;;;;;;;;;;4994558;28;20037;-85
2021/07/01 12:17:51;;;;;;;1.73;1.33;;;;;;;;;;4977101;28;20105;-86
2021/07/01 12:20:31;;;;;;;1.30;1.20;;;;;;;;;;4994418;28;20105;-85
2021/07/01 12:22:58;;;;;;;2.65;1.30;;;;;;;;;;4976965;28;20057;-86
2021/07/01 12:25:39;;;;;;;1.83;1.50;;;;;;;;;;4976881;28;20027;-85
2021/07/01 12:28:08;;;;;;;3.40;1.70;;;;;;;;;;4976896;28;20045;-85
2021/07/01 12:30:55;;;;;;;7.60;1.70;;;;;;;;;;4977000;28;20474;-86
2021/07/01 12:33:40;;;;;;;7.18;2.45;;;;;;;;;;4976832;28;20470;-84
2021/07/01 12:36:10;;;;;;;2.30;1.85;;;;;;;;;;4994221;28;20045;-85
2021/07/01 12:38:37;;;;;;;3.30;1.77;;;;;;;;;;4976774;28;20022;-83
2021/07/01 12:41:05;;;;;;;3.17;2.22;;;;;;;;;;4976757;28;20030;-85
2021/07/01 12:43:43;;;;;;;2.72;2.10;;;;;;;;;;4976699;28;20038;-85
2021/07/01 12:46:10;;;;;;;4.53;2.45;;;;;;;;;;4994316;28;20033;-85
2021/07/01 12:48:39;;;;;;;4.63;3.03;;;;;;;;;;4976619;28;20022;-86
2021/07/01 12:51:24;;;;;;;6.60;3.88;;;;;;;;;;4976318;28;20029;-84
2021/07/01 12:53:51;;;;;;;3.85;2.67;;;;;;;;;;4976389;28;20073;-84
2021/07/01 12:56:29;;;;;;;4.47;3.22;;;;;;;;;;4976599;28;20061;-85
2021/07/01 12:58:56;;;;;;;5.45;2.97;;;;;;;;;;4994288;28;20022;-84
2021/07/01 13:01:22;;;;;;;3.63;2.67;;;;;;;;;;4976291;28;20070;-85
2021/07/01 13:03:48;;;;;;;4.38;2.75;;;;;;;;;;4978811;28;20023;-84
2021/07/01 13:06:15;;;;;;;4.63;3.00;;;;;;;;;;4979236;28;20034;-85
2021/07/01 13:08:41;;;;;;;5.22;3.25;;;;;;;;;;4977593;28;20072;-85
2021/07/01 13:11:07;;;;;;;3.60;3.17;;;;;;;;;;4976571;28;20034;-84
2021/07/01 13:13:33;;;;;;;3.78;2.90;;;;;;;;;;4976444;28;20023;-84
2021/07/01 13:16:06;;;;;;;3.80;2.72;;;;;;;;;;4976416;28;20057;-84
2021/07/01 13:18:32;;;;;;;4.28;2.50;;;;;;;;;;4993749;28;20034;-83
2021/07/01 13:21:12;;;;;;;5.40;2.45;;;21.20;99.90;;;;;;4993998;28;20045;-83
2021/07/01 13:23:38;;;;;;;5.15;2.75;;;21.60;99.90;;;;;;4976252;28;20104;-83
2021/07/01 13:26:10;;;;;;;3.67;2.63;;;22.80;99.90;;;;;;4976226;28;20037;-83
2021/07/01 13:28:36;;;;;;;3.03;2.25;;;21.90;99.90;;;;;;4976326;28;20485;-84
2021/07/01 13:31:03;;;;;;;4.47;2.40;;;21.50;99.90;;;;;;4976173;28;20018;-83
2021/07/01 13:33:29;;;;;;;3.55;2.20;;;20.80;99.90;;;;;;4993637;28;20034;-83
2021/07/01 13:35:55;;;;;;;2.80;2.50;;;20.40;99.90;;;;;;4976146;28;20030;-83
2021/07/01 13:38:24;;;;;;;4.28;2.83;;;20.60;99.90;;;;;;4993578;28;20058;-83
2021/07/01 13:40:53;;;;;;;2.88;2.47;;;20.30;99.90;;;;;;4976156;28;20026;-83
2021/07/01 13:43:20;;;;;;;3.53;2.60;;;20.00;99.90;;;;;;4976062;28;20041;-83
2021/07/01 13:45:49;;;;;;;4.00;2.65;;;19.80;99.90;;;;;;4993461;28;20026;-83
2021/07/01 13:48:20;;;;;;;2.97;2.10;;;19.40;99.90;;;;;;4976079;28;20393;-83
2021/07/01 13:50:47;;;;;;;3.10;2.40;;;19.30;99.90;;;;;;4976036;28;20112;-84
2021/07/01 13:53:15;;;;;;;3.85;2.90;;;19.00;99.90;;;;;;4976019;28;20474;-83
2021/07/01 13:55:48;;;;;;;5.10;2.88;;;18.80;99.90;;;;;;4976086;28;20389;-83
2021/07/01 13:58:20;;;;;;;4.72;2.88;;;18.60;99.90;;;;;;4975996;28;20532;-83
2021/07/01 14:00:56;;;;;;;7.85;3.28;;;18.40;99.90;;;;;;4975669;28;20047;-83
2021/07/01 14:03:24;;;;;;;5.10;3.60;;;18.20;99.90;;;;;;4977373;28;20026;-83
2021/07/01 14:06:04;;;;;;;6.57;3.20;;;18.00;99.90;;;;;;4979360;28;20026;-84
2021/07/01 14:08:36;;;;;;;3.72;2.90;;;18.00;99.90;;;;;;4979474;28;20117;-83
2021/07/01 14:11:05;;;;;;;5.13;3.30;;;18.00;99.90;;;;;;4979276;28;20029;-83
2021/07/01 14:13:40;;;;;;;5.07;3.22;;;17.90;99.90;;;;;;4979300;28;20022;-83
2021/07/01 14:16:06;;;;;;;6.95;3.60;;;17.70;99.90;;;;;;4979298;28;20160;-82
2021/07/01 14:18:36;;;;;;;6.63;3.10;;;17.50;99.90;;;;;;4979253;28;20030;-83
2021/07/01 14:21:03;;;;;;;4.95;3.60;;;17.40;99.90;;;;;;4979156;28;20430;-83
2021/07/01 14:23:31;;;;;;;6.75;3.47;;;17.60;99.90;;;;;;4979112;28;20113;-83
2021/07/01 14:25:58;;;;;;;4.70;3.17;;;17.70;99.90;;;;;;4979294;28;20023;-82
2021/07/01 14:28:29;;;;;;;5.40;3.40;;;17.70;99.90;;;;;;4979015;28;20528;-82
2021/07/01 14:30:58;;;;;;;7.93;3.28;;;17.90;99.90;;;;;;4979010;28;20501;-82
2021/07/01 14:33:31;;;;;;;4.28;3.53;;;18.10;99.90;;;;;;4996491;28;20540;-83